Aviation Digital Data Service (ADDS)

Output produced by METARs form (1211 UTC 15 July 2020)
found at http://www.aviationweather.gov/metar/data/
 
METAR text: RJAH 151200Z 06012KT 030V090 9999 FEW008 BKN010 BKN035 17/15 Q1004
Conditions at: RJAH (HYAKURI (JASDF) , JP) observed 1200 UTC 15 July 2020
Temperature: 17.0°C (63°F)
Dewpoint: 15.0°C (59°F) [RH = 88%]
Pressure (altimeter): 29.65 inches Hg (1004.0 mb)
Winds: from the ENE (60 degrees) at 14 MPH (12 knots; 6.2 m/s)
Visibility: 6 or more miles (10+ km)
Ceiling: 1000 feet AGL
Clouds: few clouds at 800 feet AGL
broken clouds at 1000 feet AGL
broken clouds at 3500 feet AGL
Weather: no significant weather observed at this time

METAR text: RJAH 151118Z 06013KT 9999 FEW008 BKN010 BKN035 17/15 Q1003 RMK 2ST008 6ST010 7CU035 A2964
Conditions at: RJAH (HYAKURI (JASDF) , JP) observed 1118 UTC 15 July 2020
Temperature: 17.0°C (63°F)
Dewpoint: 15.0°C (59°F) [RH = 88%]
Pressure (altimeter): 29.62 inches Hg (1003.0 mb)
Winds: from the ENE (60 degrees) at 15 MPH (13 knots; 6.7 m/s)
Visibility: 6 or more miles (10+ km)
Ceiling: 1000 feet AGL
Clouds: few clouds at 800 feet AGL
broken clouds at 1000 feet AGL
broken clouds at 3500 feet AGL
Weather: no significant weather observed at this time

METAR text: RJAH 151100Z 06013KT 9999 -SHRA FEW008 BKN010 BKN035 18/15 Q1003
Conditions at: RJAH (HYAKURI (JASDF) , JP) observed 1100 UTC 15 July 2020
Temperature: 18.0°C (64°F)
Dewpoint: 15.0°C (59°F) [RH = 83%]
Pressure (altimeter): 29.62 inches Hg (1003.0 mb)
Winds: from the ENE (60 degrees) at 15 MPH (13 knots; 6.7 m/s)
Visibility: 6 or more miles (10+ km)
Ceiling: 1000 feet AGL
Clouds: few clouds at 800 feet AGL
broken clouds at 1000 feet AGL
broken clouds at 3500 feet AGL
Weather: -SHRA  (light rain showers)

METAR text: RJAH 151033Z 06011KT 9999 -SHRA FEW008 BKN010 BKN035 18/15 Q1003 RMK 2ST008 6ST010 7CU035 A2963
Conditions at: RJAH (HYAKURI (JASDF) , JP) observed 1033 UTC 15 July 2020
Temperature: 18.0°C (64°F)
Dewpoint: 15.0°C (59°F) [RH = 83%]
Pressure (altimeter): 29.62 inches Hg (1003.0 mb)
Winds: from the ENE (60 degrees) at 13 MPH (11 knots; 5.7 m/s)
Visibility: 6 or more miles (10+ km)
Ceiling: 1000 feet AGL
Clouds: few clouds at 800 feet AGL
broken clouds at 1000 feet AGL
broken clouds at 3500 feet AGL
Weather: -SHRA  (light rain showers)

METAR text: RJAH 151000Z 06012KT 9999 FEW008 BKN010 BKN040 18/15 Q1002
Conditions at: RJAH (HYAKURI (JASDF) , JP) observed 1000 UTC 15 July 2020
Temperature: 18.0°C (64°F)
Dewpoint: 15.0°C (59°F) [RH = 83%]
Pressure (altimeter): 29.59 inches Hg (1002.0 mb)
Winds: from the ENE (60 degrees) at 14 MPH (12 knots; 6.2 m/s)
Visibility: 6 or more miles (10+ km)
Ceiling: 1000 feet AGL
Clouds: few clouds at 800 feet AGL
broken clouds at 1000 feet AGL
broken clouds at 4000 feet AGL
Weather: no significant weather observed at this time

METAR text: RJAH 150936Z 06014KT 9999 FEW008 BKN010 BKN040 18/15 Q1002 RMK 2ST008 5ST010 7SC040 A2961
Conditions at: RJAH (HYAKURI (JASDF) , JP) observed 0936 UTC 15 July 2020
Temperature: 18.0°C (64°F)
Dewpoint: 15.0°C (59°F) [RH = 83%]
Pressure (altimeter): 29.59 inches Hg (1002.0 mb)
Winds: from the ENE (60 degrees) at 16 MPH (14 knots; 7.2 m/s)
Visibility: 6 or more miles (10+ km)
Ceiling: 1000 feet AGL
Clouds: few clouds at 800 feet AGL
broken clouds at 1000 feet AGL
broken clouds at 4000 feet AGL
Weather: no significant weather observed at this time

METAR text: RJAH 150927Z 06014KT 9999 FEW008 SCT012 BKN040 18/15 Q1002 RMK 2ST008 4CU012 7SC040 A2960
Conditions at: RJAH (HYAKURI (JASDF) , JP) observed 0927 UTC 15 July 2020
Temperature: 18.0°C (64°F)
Dewpoint: 15.0°C (59°F) [RH = 83%]
Pressure (altimeter): 29.59 inches Hg (1002.0 mb)
Winds: from the ENE (60 degrees) at 16 MPH (14 knots; 7.2 m/s)
Visibility: 6 or more miles (10+ km)
Ceiling: 4000 feet AGL
Clouds: few clouds at 800 feet AGL
scattered clouds at 1200 feet AGL
broken clouds at 4000 feet AGL
Weather: no significant weather observed at this time

METAR text: RJAH 150900Z 05017KT 9999 -SHRA FEW008 BKN012 BKN040 18/16 Q1001
Conditions at: RJAH (HYAKURI (JASDF) , JP) observed 0900 UTC 15 July 2020
Temperature: 18.0°C (64°F)
Dewpoint: 16.0°C (61°F) [RH = 88%]
Pressure (altimeter): 29.56 inches Hg (1001.0 mb)
Winds: from the NE (50 degrees) at 20 MPH (17 knots; 8.7 m/s)
Visibility: 6 or more miles (10+ km)
Ceiling: 1200 feet AGL
Clouds: few clouds at 800 feet AGL
broken clouds at 1200 feet AGL
broken clouds at 4000 feet AGL
Weather: -SHRA  (light rain showers)

METAR text: RJAH 150800Z 06015KT 9999 -SHRA SCT012 SCT030 BKN040 19/16 Q1001
Conditions at: RJAH (HYAKURI (JASDF) , JP) observed 0800 UTC 15 July 2020
Temperature: 19.0°C (66°F)
Dewpoint: 16.0°C (61°F) [RH = 83%]
Pressure (altimeter): 29.56 inches Hg (1001.0 mb)
Winds: from the ENE (60 degrees) at 17 MPH (15 knots; 7.7 m/s)
Visibility: 6 or more miles (10+ km)
Ceiling: 4000 feet AGL
Clouds: scattered clouds at 1200 feet AGL
scattered clouds at 3000 feet AGL
broken clouds at 4000 feet AGL
Weather: -SHRA  (light rain showers)

METAR text: RJAH 150750Z 06015KT 9999 -SHRA SCT012 SCT030 BKN040 19/16 Q1001 RMK 3CU012 3CU030 7SC040 A2958
Conditions at: RJAH (HYAKURI (JASDF) , JP) observed 0750 UTC 15 July 2020
Temperature: 19.0°C (66°F)
Dewpoint: 16.0°C (61°F) [RH = 83%]
Pressure (altimeter): 29.56 inches Hg (1001.0 mb)
Winds: from the ENE (60 degrees) at 17 MPH (15 knots; 7.7 m/s)
Visibility: 6 or more miles (10+ km)
Ceiling: 4000 feet AGL
Clouds: scattered clouds at 1200 feet AGL
scattered clouds at 3000 feet AGL
broken clouds at 4000 feet AGL
Weather: -SHRA  (light rain showers)

METAR text: RJAH 150700Z 05014KT 9999 FEW012 BKN030 BKN040 19/16 Q1001
Conditions at: RJAH (HYAKURI (JASDF) , JP) observed 0700 UTC 15 July 2020
Temperature: 19.0°C (66°F)
Dewpoint: 16.0°C (61°F) [RH = 83%]
Pressure (altimeter): 29.56 inches Hg (1001.0 mb)
Winds: from the NE (50 degrees) at 16 MPH (14 knots; 7.2 m/s)
Visibility: 6 or more miles (10+ km)
Ceiling: 3000 feet AGL
Clouds: few clouds at 1200 feet AGL
broken clouds at 3000 feet AGL
broken clouds at 4000 feet AGL
Weather: no significant weather observed at this time

METAR text: RJAH 150600Z 06013KT 9999 FEW015 BKN020 BKN040 20/17 Q1001
Conditions at: RJAH (HYAKURI (JASDF) , JP) observed 0600 UTC 15 July 2020
Temperature: 20.0°C (68°F)
Dewpoint: 17.0°C (63°F) [RH = 83%]
Pressure (altimeter): 29.56 inches Hg (1001.0 mb)
Winds: from the ENE (60 degrees) at 15 MPH (13 knots; 6.7 m/s)
Visibility: 6 or more miles (10+ km)
Ceiling: 2000 feet AGL
Clouds: few clouds at 1500 feet AGL
broken clouds at 2000 feet AGL
broken clouds at 4000 feet AGL
Weather: no significant weather observed at this time

METAR text: RJAH 150517Z 07013KT 9999 -SHRA FEW015 BKN020 BKN040 21/17 Q1001 RMK 2CU015 6CU020 7SC040 A2956 MAX WIND 20KT
Conditions at: RJAH (HYAKURI (JASDF) , JP) observed 0517 UTC 15 July 2020
Temperature: 21.0°C (70°F)
Dewpoint: 17.0°C (63°F) [RH = 78%]
Pressure (altimeter): 29.56 inches Hg (1001.0 mb)
Winds: from the ENE (70 degrees) at 15 MPH (13 knots; 6.7 m/s)
Visibility: 6 or more miles (10+ km)
Ceiling: 2000 feet AGL
Clouds: few clouds at 1500 feet AGL
broken clouds at 2000 feet AGL
broken clouds at 4000 feet AGL
Weather: -SHRA  (light rain showers)

METAR text: RJAH 150500Z 08013KT 9999 FEW015 BKN020 BKN040 21/17 Q1000
Conditions at: RJAH (HYAKURI (JASDF) , JP) observed 0500 UTC 15 July 2020
Temperature: 21.0°C (70°F)
Dewpoint: 17.0°C (63°F) [RH = 78%]
Pressure (altimeter): 29.53 inches Hg (1000.0 mb)
Winds: from the E (80 degrees) at 15 MPH (13 knots; 6.7 m/s)
Visibility: 6 or more miles (10+ km)
Ceiling: 2000 feet AGL
Clouds: few clouds at 1500 feet AGL
broken clouds at 2000 feet AGL
broken clouds at 4000 feet AGL
Weather: no significant weather observed at this time

METAR text: RJAH 150412Z 08010KT 9999 FEW015 BKN020 BKN040 22/18 Q1000 RMK 1CU015 5CU020 7SC040 A2955
Conditions at: RJAH (HYAKURI (JASDF) , JP) observed 0412 UTC 15 July 2020
Temperature: 22.0°C (72°F)
Dewpoint: 18.0°C (64°F) [RH = 78%]
Pressure (altimeter): 29.53 inches Hg (1000.0 mb)
Winds: from the E (80 degrees) at 12 MPH (10 knots; 5.1 m/s)
Visibility: 6 or more miles (10+ km)
Ceiling: 2000 feet AGL
Clouds: few clouds at 1500 feet AGL
broken clouds at 2000 feet AGL
broken clouds at 4000 feet AGL
Weather: no significant weather observed at this time

METAR text: RJAH 150400Z 05011KT 030V090 9999 SCT015 BKN040 23/18 Q1000
Conditions at: RJAH (HYAKURI (JASDF) , JP) observed 0400 UTC 15 July 2020
Temperature: 23.0°C (73°F)
Dewpoint: 18.0°C (64°F) [RH = 73%]
Pressure (altimeter): 29.53 inches Hg (1000.0 mb)
Winds: from the NE (50 degrees) at 13 MPH (11 knots; 5.7 m/s)
Visibility: 6 or more miles (10+ km)
Ceiling: 4000 feet AGL
Clouds: scattered clouds at 1500 feet AGL
broken clouds at 4000 feet AGL
Weather: no significant weather observed at this time

METAR text: RJAH 150300Z 05010KT 9999 SCT012 BKN040 22/19 Q1000
Conditions at: RJAH (HYAKURI (JASDF) , JP) observed 0300 UTC 15 July 2020
Temperature: 22.0°C (72°F)
Dewpoint: 19.0°C (66°F) [RH = 83%]
Pressure (altimeter): 29.53 inches Hg (1000.0 mb)
Winds: from the NE (50 degrees) at 12 MPH (10 knots; 5.1 m/s)
Visibility: 6 or more miles (10+ km)
Ceiling: 4000 feet AGL
Clouds: scattered clouds at 1200 feet AGL
broken clouds at 4000 feet AGL
Weather: no significant weather observed at this time

METAR text: RJAH 150226Z 06010KT 9999 FEW006 SCT012 BKN040 22/19 Q1000 RMK 1ST006 3CU012 7SC040 A2955
Conditions at: RJAH (HYAKURI (JASDF) , JP) observed 0226 UTC 15 July 2020
Temperature: 22.0°C (72°F)
Dewpoint: 19.0°C (66°F) [RH = 83%]
Pressure (altimeter): 29.53 inches Hg (1000.0 mb)
Winds: from the ENE (60 degrees) at 12 MPH (10 knots; 5.1 m/s)
Visibility: 6 or more miles (10+ km)
Ceiling: 4000 feet AGL
Clouds: few clouds at 600 feet AGL
scattered clouds at 1200 feet AGL
broken clouds at 4000 feet AGL
Weather: no significant weather observed at this time

METAR text: RJAH 150200Z 09004KT 060V120 9999 SCT006 BKN012 BKN040 21/19 Q1000
Conditions at: RJAH (HYAKURI (JASDF) , JP) observed 0200 UTC 15 July 2020
Temperature: 21.0°C (70°F)
Dewpoint: 19.0°C (66°F) [RH = 88%]
Pressure (altimeter): 29.53 inches Hg (1000.0 mb)
Winds: from the E (90 degrees) at 5 MPH (4 knots; 2.1 m/s)
Visibility: 6 or more miles (10+ km)
Ceiling: 1200 feet AGL
Clouds: scattered clouds at 600 feet AGL
broken clouds at 1200 feet AGL
broken clouds at 4000 feet AGL
Weather: no significant weather observed at this time

METAR text: RJAH 150104Z 04005KT 9999 FEW006 BKN012 BKN040 22/20 Q1000 RMK 1ST006 5CU012 7SC040 A2954
Conditions at: RJAH (HYAKURI (JASDF) , JP) observed 0104 UTC 15 July 2020
Temperature: 22.0°C (72°F)
Dewpoint: 20.0°C (68°F) [RH = 88%]
Pressure (altimeter): 29.53 inches Hg (1000.0 mb)
Winds: from the NE (40 degrees) at 6 MPH (5 knots; 2.6 m/s)
Visibility: 6 or more miles (10+ km)
Ceiling: 1200 feet AGL
Clouds: few clouds at 600 feet AGL
broken clouds at 1200 feet AGL
broken clouds at 4000 feet AGL
Weather: no significant weather observed at this time

METAR text: RJAH 150100Z 03004KT 9999 FEW006 SCT012 BKN040 22/20 Q1000
Conditions at: RJAH (HYAKURI (JASDF) , JP) observed 0100 UTC 15 July 2020
Temperature: 22.0°C (72°F)
Dewpoint: 20.0°C (68°F) [RH = 88%]
Pressure (altimeter): 29.53 inches Hg (1000.0 mb)
Winds: from the NNE (30 degrees) at 5 MPH (4 knots; 2.1 m/s)
Visibility: 6 or more miles (10+ km)
Ceiling: 4000 feet AGL
Clouds: few clouds at 600 feet AGL
scattered clouds at 1200 feet AGL
broken clouds at 4000 feet AGL
Weather: no significant weather observed at this time

METAR text: RJAH 150038Z VRB02KT 9999 FEW006 SCT025 BKN040 22/20 Q1000 RMK 2ST006 4CU025 7SC040 A2953
Conditions at: RJAH (HYAKURI (JASDF) , JP) observed 0038 UTC 15 July 2020
Temperature: 22.0°C (72°F)
Dewpoint: 20.0°C (68°F) [RH = 88%]
Pressure (altimeter): 29.53 inches Hg (1000.0 mb)
Winds: variable direction winds at 2 MPH (2 knots; 1.0 m/s)
Visibility: 6 or more miles (10+ km)
Ceiling: 4000 feet AGL
Clouds: few clouds at 600 feet AGL
scattered clouds at 2500 feet AGL
broken clouds at 4000 feet AGL
Weather: no significant weather observed at this time

METAR text: RJAH 150000Z 36004KT 8000 -SHRA SCT006 BKN012 BKN025 21/19 Q0999
Conditions at: RJAH (HYAKURI (JASDF) , JP) observed 0000 UTC 15 July 2020
Temperature: 21.0°C (70°F)
Dewpoint: 19.0°C (66°F) [RH = 88%]
Pressure (altimeter): 29.50 inches Hg (999.0 mb)
Winds: from the N (360 degrees) at 5 MPH (4 knots; 2.1 m/s)
Visibility: 5 miles ( 8 km)
Ceiling: 1200 feet AGL
Clouds: scattered clouds at 600 feet AGL
broken clouds at 1200 feet AGL
broken clouds at 2500 feet AGL
Weather: -SHRA  (light rain showers)

METAR text: RJAH 142351Z 36004KT 5000 -SHRA BR SCT006 BKN012 BKN025 21/19 Q0999 RMK 3ST006 6CU012 7CU025 A2952 VIS SW-NW 8KM
Conditions at: RJAH (HYAKURI (JASDF) , JP) observed 2351 UTC 14 July 2020
Temperature: 21.0°C (70°F)
Dewpoint: 19.0°C (66°F) [RH = 88%]
Pressure (altimeter): 29.50 inches Hg (999.0 mb)
Winds: from the N (360 degrees) at 5 MPH (4 knots; 2.1 m/s)
Visibility: 3 miles ( 5 km)
Ceiling: 1200 feet AGL
Clouds: scattered clouds at 600 feet AGL
broken clouds at 1200 feet AGL
broken clouds at 2500 feet AGL
Weather: -SHRA BR  (light rain showers, mist)

METAR text: RJAH 142332Z 33004KT 2500 SHRA BR FEW004 BKN006 BKN012 20/19 Q0999 RMK 2ST004 6ST006 7CU012 A2953 VIS SW-N 2000M
Conditions at: RJAH (HYAKURI (JASDF) , JP) observed 2332 UTC 14 July 2020
Temperature: 20.0°C (68°F)
Dewpoint: 19.0°C (66°F) [RH = 94%]
Pressure (altimeter): 29.50 inches Hg (999.0 mb)
Winds: from the NNW (330 degrees) at 5 MPH (4 knots; 2.1 m/s)
Visibility: 1.55 miles (2.49 km)
Ceiling: 600 feet AGL
Clouds: few clouds at 400 feet AGL
broken clouds at 600 feet AGL
broken clouds at 1200 feet AGL
Weather: SHRA BR  (rain showers, mist)

METAR text: RJAH 142328Z COR 33004KT 4000 -SHRA BR FEW004 BKN006 BKN012 20/19 Q0999 RMK 2ST004 6ST006 7CU012 A2953 VIS SW-N 2500M
Conditions at: RJAH (HYAKURI (JASDF) , JP) observed 2328 UTC 14 July 2020
Temperature: 20.0°C (68°F)
Dewpoint: 19.0°C (66°F) [RH = 94%]
Pressure (altimeter): 29.50 inches Hg (999.0 mb)
Winds: from the NNW (330 degrees) at 5 MPH (4 knots; 2.1 m/s)
Visibility: 2.49 miles (4.01 km)
Ceiling: 600 feet AGL
Clouds: few clouds at 400 feet AGL
broken clouds at 600 feet AGL
broken clouds at 1200 feet AGL
Weather: -SHRA BR  (light rain showers, mist)

METAR text: RJAH 142322Z 32004KT 6000 -DZ FEW004 BKN006 BKN012 20/19 Q0999 RMK 2ST004 6ST006 7SC012 A2953 VIS SW-NW 4000M
Conditions at: RJAH (HYAKURI (JASDF) , JP) observed 2322 UTC 14 July 2020
Temperature: 20.0°C (68°F)
Dewpoint: 19.0°C (66°F) [RH = 94%]
Pressure (altimeter): 29.50 inches Hg (999.0 mb)
Winds: from the NW (320 degrees) at 5 MPH (4 knots; 2.1 m/s)
Visibility: 4 miles ( 6 km)
Ceiling: 600 feet AGL
Clouds: few clouds at 400 feet AGL
broken clouds at 600 feet AGL
broken clouds at 1200 feet AGL
Weather: -DZ  (light drizzle)

METAR text: RJAH 142300Z VRB02KT 7000 FEW004 BKN006 BKN012 21/19 Q0999
Conditions at: RJAH (HYAKURI (JASDF) , JP) observed 2300 UTC 14 July 2020
Temperature: 21.0°C (70°F)
Dewpoint: 19.0°C (66°F) [RH = 88%]
Pressure (altimeter): 29.50 inches Hg (999.0 mb)
Winds: variable direction winds at 2 MPH (2 knots; 1.0 m/s)
Visibility: 4 miles ( 7 km)
Ceiling: 600 feet AGL
Clouds: few clouds at 400 feet AGL
broken clouds at 600 feet AGL
broken clouds at 1200 feet AGL
Weather: no significant weather observed at this time

METAR text: RJAH 142221Z 35003KT 320V020 6000 FEW004 BKN006 BKN012 21/19 Q0999 RMK 2ST004 5ST006 7SC012 A2951
Conditions at: RJAH (HYAKURI (JASDF) , JP) observed 2221 UTC 14 July 2020
Temperature: 21.0°C (70°F)
Dewpoint: 19.0°C (66°F) [RH = 88%]
Pressure (altimeter): 29.50 inches Hg (999.0 mb)
Winds: from the N (350 degrees) at 3 MPH (3 knots; 1.5 m/s)
Visibility: 4 miles ( 6 km)
Ceiling: 600 feet AGL
Clouds: few clouds at 400 feet AGL
broken clouds at 600 feet AGL
broken clouds at 1200 feet AGL
Weather: no significant weather observed at this time

METAR text: RJAH 142200Z 02004KT 350V050 3000 -DZ BR FEW003 SCT004 BKN012 21/19 Q0999
Conditions at: RJAH (HYAKURI (JASDF) , JP) observed 2200 UTC 14 July 2020
Temperature: 21.0°C (70°F)
Dewpoint: 19.0°C (66°F) [RH = 88%]
Pressure (altimeter): 29.50 inches Hg (999.0 mb)
Winds: from the NNE (20 degrees) at 5 MPH (4 knots; 2.1 m/s)
Visibility: 1.86 miles (2.99 km)
Ceiling: 1200 feet AGL
Clouds: few clouds at 300 feet AGL
scattered clouds at 400 feet AGL
broken clouds at 1200 feet AGL
Weather: -DZ BR  (light drizzle, mist)

METAR text: RJAH 142149Z 02003KT 350V060 3000 -DZ BR FEW003 SCT004 BKN012 20/19 Q0999 RMK 2ST003 4ST004 7SC012 A2951 VIS S-SW 2500M
Conditions at: RJAH (HYAKURI (JASDF) , JP) observed 2149 UTC 14 July 2020
Temperature: 20.0°C (68°F)
Dewpoint: 19.0°C (66°F) [RH = 94%]
Pressure (altimeter): 29.50 inches Hg (999.0 mb)
Winds: from the NNE (20 degrees) at 3 MPH (3 knots; 1.5 m/s)
Visibility: 1.86 miles (2.99 km)
Ceiling: 1200 feet AGL
Clouds: few clouds at 300 feet AGL
scattered clouds at 400 feet AGL
broken clouds at 1200 feet AGL
Weather: -DZ BR  (light drizzle, mist)

METAR text: RJAH 142100Z 04003KT 020V080 2500 -DZ BR SCT002 BKN003 BKN015 20/19 Q0998
Conditions at: RJAH (HYAKURI (JASDF) , JP) observed 2100 UTC 14 July 2020
Temperature: 20.0°C (68°F)
Dewpoint: 19.0°C (66°F) [RH = 94%]
Pressure (altimeter): 29.47 inches Hg (998.0 mb)
Winds: from the NE (40 degrees) at 3 MPH (3 knots; 1.5 m/s)
Visibility: 1.55 miles (2.49 km)
Ceiling: 300 feet AGL
Clouds: scattered clouds at 200 feet AGL
broken clouds at 300 feet AGL
broken clouds at 1500 feet AGL
Weather: -DZ BR  (light drizzle, mist)

METAR text: RJAH 142040Z 05002KT 2000 -DZ BR FEW001 BKN002 BKN003 20/18 Q0998 RMK 1ST001 5ST002 6ST003 A2949 VIS N-NE 1500M
Conditions at: RJAH (HYAKURI (JASDF) , JP) observed 2040 UTC 14 July 2020
Temperature: 20.0°C (68°F)
Dewpoint: 18.0°C (64°F) [RH = 88%]
Pressure (altimeter): 29.47 inches Hg (998.0 mb)
Winds: from the NE (50 degrees) at 2 MPH (2 knots; 1.0 m/s)
Visibility: 1.24 miles (2.00 km)
Ceiling: 200 feet AGL
Clouds: few clouds at 100 feet AGL
broken clouds at 200 feet AGL
broken clouds at 300 feet AGL
Weather: -DZ BR  (light drizzle, mist)

METAR text: RJAH 142010Z 03003KT 1500 R03/P1800N -DZ BR SCT001 BKN002 OVC003 19/18 Q0998 RMK 3ST001 6ST002 8ST003 A2949 VIS NW-NE 1000M
Conditions at: RJAH (HYAKURI (JASDF) , JP) observed 2010 UTC 14 July 2020
Temperature: 19.0°C (66°F)
Dewpoint: 18.0°C (64°F) [RH = 94%]
Pressure (altimeter): 29.47 inches Hg (998.0 mb)
Winds: from the NNE (30 degrees) at 3 MPH (3 knots; 1.5 m/s)
Visibility: 0.93 miles (1.50 km)
Ceiling: 200 feet AGL
Clouds: scattered clouds at 100 feet AGL
broken clouds at 200 feet AGL
overcast cloud deck at 300 feet AGL
Weather: -DZ BR  (light drizzle, mist)

METAR text: RJAH 142004Z 03004KT 2000 BR FEW001 BKN002 OVC003 19/18 Q0998 RMK 2ST001 5ST002 8ST003 A2948 VIS NW-NE 1000M
Conditions at: RJAH (HYAKURI (JASDF) , JP) observed 2004 UTC 14 July 2020
Temperature: 19.0°C (66°F)
Dewpoint: 18.0°C (64°F) [RH = 94%]
Pressure (altimeter): 29.47 inches Hg (998.0 mb)
Winds: from the NNE (30 degrees) at 5 MPH (4 knots; 2.1 m/s)
Visibility: 1.24 miles (2.00 km)
Ceiling: 200 feet AGL
Clouds: few clouds at 100 feet AGL
broken clouds at 200 feet AGL
overcast cloud deck at 300 feet AGL
Weather: BR  (mist)

METAR text: RJAH 142000Z 03004KT 2500 BR SCT002 BKN003 BKN010 19/18 Q0998
Conditions at: RJAH (HYAKURI (JASDF) , JP) observed 2000 UTC 14 July 2020
Temperature: 19.0°C (66°F)
Dewpoint: 18.0°C (64°F) [RH = 94%]
Pressure (altimeter): 29.47 inches Hg (998.0 mb)
Winds: from the NNE (30 degrees) at 5 MPH (4 knots; 2.1 m/s)
Visibility: 1.55 miles (2.49 km)
Ceiling: 300 feet AGL
Clouds: scattered clouds at 200 feet AGL
broken clouds at 300 feet AGL
broken clouds at 1000 feet AGL
Weather: BR  (mist)

METAR text: RJAH 141900Z 03004KT 3000 BR FEW002 BKN003 BKN010 19/18 Q0997
Conditions at: RJAH (HYAKURI (JASDF) , JP) observed 1900 UTC 14 July 2020
Temperature: 19.0°C (66°F)
Dewpoint: 18.0°C (64°F) [RH = 94%]
Pressure (altimeter): 29.44 inches Hg (997.0 mb)
Winds: from the NNE (30 degrees) at 5 MPH (4 knots; 2.1 m/s)
Visibility: 1.86 miles (2.99 km)
Ceiling: 300 feet AGL
Clouds: few clouds at 200 feet AGL
broken clouds at 300 feet AGL
broken clouds at 1000 feet AGL
Weather: BR  (mist)

METAR text: RJAH 141839Z 04004KT 3000 -SHRA BR FEW002 BKN003 BKN010 19/18 Q0997 RMK 2ST002 6ST003 7ST010 A2947 VIS S-SW 2500M
Conditions at: RJAH (HYAKURI (JASDF) , JP) observed 1839 UTC 14 July 2020
Temperature: 19.0°C (66°F)
Dewpoint: 18.0°C (64°F) [RH = 94%]
Pressure (altimeter): 29.44 inches Hg (997.0 mb)
Winds: from the NE (40 degrees) at 5 MPH (4 knots; 2.1 m/s)
Visibility: 1.86 miles (2.99 km)
Ceiling: 300 feet AGL
Clouds: few clouds at 200 feet AGL
broken clouds at 300 feet AGL
broken clouds at 1000 feet AGL
Weather: -SHRA BR  (light rain showers, mist)

METAR text: RJAH 141800Z 08004KT 3000 -SHRA BR FEW002 BKN004 BKN010 19/18 Q0997
Conditions at: RJAH (HYAKURI (JASDF) , JP) observed 1800 UTC 14 July 2020
Temperature: 19.0°C (66°F)
Dewpoint: 18.0°C (64°F) [RH = 94%]
Pressure (altimeter): 29.44 inches Hg (997.0 mb)
Winds: from the E (80 degrees) at 5 MPH (4 knots; 2.1 m/s)
Visibility: 1.86 miles (2.99 km)
Ceiling: 400 feet AGL
Clouds: few clouds at 200 feet AGL
broken clouds at 400 feet AGL
broken clouds at 1000 feet AGL
Weather: -SHRA BR  (light rain showers, mist)

METAR text: RJAH 141750Z 08004KT 3000 -SHRA BR FEW002 BKN004 BKN010 19/18 Q0997 RMK 2ST002 6ST004 7ST010 A2947 VIS S-SW 2500M
Conditions at: RJAH (HYAKURI (JASDF) , JP) observed 1750 UTC 14 July 2020
Temperature: 19.0°C (66°F)
Dewpoint: 18.0°C (64°F) [RH = 94%]
Pressure (altimeter): 29.44 inches Hg (997.0 mb)
Winds: from the E (80 degrees) at 5 MPH (4 knots; 2.1 m/s)
Visibility: 1.86 miles (2.99 km)
Ceiling: 400 feet AGL
Clouds: few clouds at 200 feet AGL
broken clouds at 400 feet AGL
broken clouds at 1000 feet AGL
Weather: -SHRA BR  (light rain showers, mist)

METAR text: RJAH 141700Z 11004KT 3000 -SHRA BR FEW002 BKN003 BKN010 19/18 Q0998
Conditions at: RJAH (HYAKURI (JASDF) , JP) observed 1700 UTC 14 July 2020
Temperature: 19.0°C (66°F)
Dewpoint: 18.0°C (64°F) [RH = 94%]
Pressure (altimeter): 29.47 inches Hg (998.0 mb)
Winds: from the ESE (110 degrees) at 5 MPH (4 knots; 2.1 m/s)
Visibility: 1.86 miles (2.99 km)
Ceiling: 300 feet AGL
Clouds: few clouds at 200 feet AGL
broken clouds at 300 feet AGL
broken clouds at 1000 feet AGL
Weather: -SHRA BR  (light rain showers, mist)

METAR text: RJAH 141600Z 08003KT 3000 -SHRA BR FEW002 BKN003 BKN010 19/18 Q0998
Conditions at: RJAH (HYAKURI (JASDF) , JP) observed 1600 UTC 14 July 2020
Temperature: 19.0°C (66°F)
Dewpoint: 18.0°C (64°F) [RH = 94%]
Pressure (altimeter): 29.47 inches Hg (998.0 mb)
Winds: from the E (80 degrees) at 3 MPH (3 knots; 1.5 m/s)
Visibility: 1.86 miles (2.99 km)
Ceiling: 300 feet AGL
Clouds: few clouds at 200 feet AGL
broken clouds at 300 feet AGL
broken clouds at 1000 feet AGL
Weather: -SHRA BR  (light rain showers, mist)

METAR text: RJAH 141500Z 10004KT 4000 -SHRA BR FEW002 BKN003 BKN010 19/18 Q0998
Conditions at: RJAH (HYAKURI (JASDF) , JP) observed 1500 UTC 14 July 2020
Temperature: 19.0°C (66°F)
Dewpoint: 18.0°C (64°F) [RH = 94%]
Pressure (altimeter): 29.47 inches Hg (998.0 mb)
Winds: from the E (100 degrees) at 5 MPH (4 knots; 2.1 m/s)
Visibility: 2.49 miles (4.01 km)
Ceiling: 300 feet AGL
Clouds: few clouds at 200 feet AGL
broken clouds at 300 feet AGL
broken clouds at 1000 feet AGL
Weather: -SHRA BR  (light rain showers, mist)

METAR text: RJAH 141447Z 10004KT 4000 -SHRA BR FEW002 BKN003 BKN010 19/18 Q0998 RMK 2ST002 6ST003 7ST010 A2948 VIS S-W 3000M
Conditions at: RJAH (HYAKURI (JASDF) , JP) observed 1447 UTC 14 July 2020
Temperature: 19.0°C (66°F)
Dewpoint: 18.0°C (64°F) [RH = 94%]
Pressure (altimeter): 29.47 inches Hg (998.0 mb)
Winds: from the E (100 degrees) at 5 MPH (4 knots; 2.1 m/s)
Visibility: 2.49 miles (4.01 km)
Ceiling: 300 feet AGL
Clouds: few clouds at 200 feet AGL
broken clouds at 300 feet AGL
broken clouds at 1000 feet AGL
Weather: -SHRA BR  (light rain showers, mist)

METAR text: RJAH 141400Z 08003KT 4000 -SHRA BR FEW002 BKN004 BKN010 19/18 Q0999
Conditions at: RJAH (HYAKURI (JASDF) , JP) observed 1400 UTC 14 July 2020
Temperature: 19.0°C (66°F)
Dewpoint: 18.0°C (64°F) [RH = 94%]
Pressure (altimeter): 29.50 inches Hg (999.0 mb)
Winds: from the E (80 degrees) at 3 MPH (3 knots; 1.5 m/s)
Visibility: 2.49 miles (4.01 km)
Ceiling: 400 feet AGL
Clouds: few clouds at 200 feet AGL
broken clouds at 400 feet AGL
broken clouds at 1000 feet AGL
Weather: -SHRA BR  (light rain showers, mist)

METAR text: RJAH 141341Z 06003KT 4000 -SHRA BR FEW002 BKN004 BKN010 19/18 Q0999 RMK 2ST002 6ST004 7ST010 A2950 VIS S-W 3000M
Conditions at: RJAH (HYAKURI (JASDF) , JP) observed 1341 UTC 14 July 2020
Temperature: 19.0°C (66°F)
Dewpoint: 18.0°C (64°F) [RH = 94%]
Pressure (altimeter): 29.50 inches Hg (999.0 mb)
Winds: from the ENE (60 degrees) at 3 MPH (3 knots; 1.5 m/s)
Visibility: 2.49 miles (4.01 km)
Ceiling: 400 feet AGL
Clouds: few clouds at 200 feet AGL
broken clouds at 400 feet AGL
broken clouds at 1000 feet AGL
Weather: -SHRA BR  (light rain showers, mist)

METAR text: RJAH 141336Z 06004KT 7000 -SHRA FEW002 BKN004 BKN010 19/18 Q0999 RMK 2ST002 6ST004 7ST010 A2950 VIS S-W 4000M
Conditions at: RJAH (HYAKURI (JASDF) , JP) observed 1336 UTC 14 July 2020
Temperature: 19.0°C (66°F)
Dewpoint: 18.0°C (64°F) [RH = 94%]
Pressure (altimeter): 29.50 inches Hg (999.0 mb)
Winds: from the ENE (60 degrees) at 5 MPH (4 knots; 2.1 m/s)
Visibility: 4 miles ( 7 km)
Ceiling: 400 feet AGL
Clouds: few clouds at 200 feet AGL
broken clouds at 400 feet AGL
broken clouds at 1000 feet AGL
Weather: -SHRA  (light rain showers)

METAR text: RJAH 141330Z 06004KT 8000 -SHRA FEW002 BKN004 BKN010 19/18 Q0999 RMK 2ST002 5ST004 7ST010 A2951
Conditions at: RJAH (HYAKURI (JASDF) , JP) observed 1330 UTC 14 July 2020
Temperature: 19.0°C (66°F)
Dewpoint: 18.0°C (64°F) [RH = 94%]
Pressure (altimeter): 29.50 inches Hg (999.0 mb)
Winds: from the ENE (60 degrees) at 5 MPH (4 knots; 2.1 m/s)
Visibility: 5 miles ( 8 km)
Ceiling: 400 feet AGL
Clouds: few clouds at 200 feet AGL
broken clouds at 400 feet AGL
broken clouds at 1000 feet AGL
Weather: -SHRA  (light rain showers)

METAR text: RJAH 141300Z 07006KT 9999 SCT004 BKN012 20/18 Q0999
Conditions at: RJAH (HYAKURI (JASDF) , JP) observed 1300 UTC 14 July 2020
Temperature: 20.0°C (68°F)
Dewpoint: 18.0°C (64°F) [RH = 88%]
Pressure (altimeter): 29.50 inches Hg (999.0 mb)
Winds: from the ENE (70 degrees) at 7 MPH (6 knots; 3.1 m/s)
Visibility: 6 or more miles (10+ km)
Ceiling: 1200 feet AGL
Clouds: scattered clouds at 400 feet AGL
broken clouds at 1200 feet AGL
Weather: no significant weather observed at this time

METAR text: RJAH 141200Z 07008KT 9999 FEW004 SCT008 BKN012 20/19 Q0999
Conditions at: RJAH (HYAKURI (JASDF) , JP) observed 1200 UTC 14 July 2020
Temperature: 20.0°C (68°F)
Dewpoint: 19.0°C (66°F) [RH = 94%]
Pressure (altimeter): 29.50 inches Hg (999.0 mb)
Winds: from the ENE (70 degrees) at 9 MPH (8 knots; 4.1 m/s)
Visibility: 6 or more miles (10+ km)
Ceiling: 1200 feet AGL
Clouds: few clouds at 400 feet AGL
scattered clouds at 800 feet AGL
broken clouds at 1200 feet AGL
Weather: no significant weather observed at this time

METAR text: RJAH 141100Z 08006KT 8000 -SHRA FEW004 SCT008 BKN012 20/19 Q0999
Conditions at: RJAH (HYAKURI (JASDF) , JP) observed 1100 UTC 14 July 2020
Temperature: 20.0°C (68°F)
Dewpoint: 19.0°C (66°F) [RH = 94%]
Pressure (altimeter): 29.50 inches Hg (999.0 mb)
Winds: from the E (80 degrees) at 7 MPH (6 knots; 3.1 m/s)
Visibility: 5 miles ( 8 km)
Ceiling: 1200 feet AGL
Clouds: few clouds at 400 feet AGL
scattered clouds at 800 feet AGL
broken clouds at 1200 feet AGL
Weather: -SHRA  (light rain showers)

METAR text: RJAH 141028Z 06006KT 5000 -SHRA BR FEW002 SCT004 BKN008 20/19 Q0999 RMK 2ST002 3ST004 5ST008 A2953
Conditions at: RJAH (HYAKURI (JASDF) , JP) observed 1028 UTC 14 July 2020
Temperature: 20.0°C (68°F)
Dewpoint: 19.0°C (66°F) [RH = 94%]
Pressure (altimeter): 29.50 inches Hg (999.0 mb)
Winds: from the ENE (60 degrees) at 7 MPH (6 knots; 3.1 m/s)
Visibility: 3 miles ( 5 km)
Ceiling: 800 feet AGL
Clouds: few clouds at 200 feet AGL
scattered clouds at 400 feet AGL
broken clouds at 800 feet AGL
Weather: -SHRA BR  (light rain showers, mist)

METAR text: RJAH 141000Z 06006KT 5000 BR FEW002 SCT004 BKN008 20/19 Q0999
Conditions at: RJAH (HYAKURI (JASDF) , JP) observed 1000 UTC 14 July 2020
Temperature: 20.0°C (68°F)
Dewpoint: 19.0°C (66°F) [RH = 94%]
Pressure (altimeter): 29.50 inches Hg (999.0 mb)
Winds: from the ENE (60 degrees) at 7 MPH (6 knots; 3.1 m/s)
Visibility: 3 miles ( 5 km)
Ceiling: 800 feet AGL
Clouds: few clouds at 200 feet AGL
scattered clouds at 400 feet AGL
broken clouds at 800 feet AGL
Weather: BR  (mist)

METAR text: RJAH 140900Z 06006KT 5000 BR FEW002 SCT004 BKN008 21/20 Q0999
Conditions at: RJAH (HYAKURI (JASDF) , JP) observed 0900 UTC 14 July 2020
Temperature: 21.0°C (70°F)
Dewpoint: 20.0°C (68°F) [RH = 94%]
Pressure (altimeter): 29.50 inches Hg (999.0 mb)
Winds: from the ENE (60 degrees) at 7 MPH (6 knots; 3.1 m/s)
Visibility: 3 miles ( 5 km)
Ceiling: 800 feet AGL
Clouds: few clouds at 200 feet AGL
scattered clouds at 400 feet AGL
broken clouds at 800 feet AGL
Weather: BR  (mist)

METAR text: RJAH 140800Z 08006KT 4000 BR FEW002 BKN004 21/19 Q0999
Conditions at: RJAH (HYAKURI (JASDF) , JP) observed 0800 UTC 14 July 2020
Temperature: 21.0°C (70°F)
Dewpoint: 19.0°C (66°F) [RH = 88%]
Pressure (altimeter): 29.50 inches Hg (999.0 mb)
Winds: from the E (80 degrees) at 7 MPH (6 knots; 3.1 m/s)
Visibility: 2.49 miles (4.01 km)
Ceiling: 400 feet AGL
Clouds: few clouds at 200 feet AGL
broken clouds at 400 feet AGL
Weather: BR  (mist)

METAR text: RJAH 140700Z 10006KT 3000 BR FEW002 BKN004 21/20 Q0999
Conditions at: RJAH (HYAKURI (JASDF) , JP) observed 0700 UTC 14 July 2020
Temperature: 21.0°C (70°F)
Dewpoint: 20.0°C (68°F) [RH = 94%]
Pressure (altimeter): 29.50 inches Hg (999.0 mb)
Winds: from the E (100 degrees) at 7 MPH (6 knots; 3.1 m/s)
Visibility: 1.86 miles (2.99 km)
Ceiling: 400 feet AGL
Clouds: few clouds at 200 feet AGL
broken clouds at 400 feet AGL
Weather: BR  (mist)

METAR text: RJAH 140600Z 06003KT 3000 BR FEW002 BKN004 22/20 Q1000
Conditions at: RJAH (HYAKURI (JASDF) , JP) observed 0600 UTC 14 July 2020
Temperature: 22.0°C (72°F)
Dewpoint: 20.0°C (68°F) [RH = 88%]
Pressure (altimeter): 29.53 inches Hg (1000.0 mb)
Winds: from the ENE (60 degrees) at 3 MPH (3 knots; 1.5 m/s)
Visibility: 1.86 miles (2.99 km)
Ceiling: 400 feet AGL
Clouds: few clouds at 200 feet AGL
broken clouds at 400 feet AGL
Weather: BR  (mist)

METAR text: RJAH 140500Z 06004KT 3000 -SHRA BR FEW001 BKN003 BKN015 21/20 Q1001
Conditions at: RJAH (HYAKURI (JASDF) , JP) observed 0500 UTC 14 July 2020
Temperature: 21.0°C (70°F)
Dewpoint: 20.0°C (68°F) [RH = 94%]
Pressure (altimeter): 29.56 inches Hg (1001.0 mb)
Winds: from the ENE (60 degrees) at 5 MPH (4 knots; 2.1 m/s)
Visibility: 1.86 miles (2.99 km)
Ceiling: 300 feet AGL
Clouds: few clouds at 100 feet AGL
broken clouds at 300 feet AGL
broken clouds at 1500 feet AGL
Weather: -SHRA BR  (light rain showers, mist)

METAR text: RJAH 140413Z 03005KT 3000 -SHRA BR FEW001 BKN003 BKN015 21/20 Q1002 RMK 1ST001 5ST003 7CU015 A2959 VIS NW-N 2000M
Conditions at: RJAH (HYAKURI (JASDF) , JP) observed 0413 UTC 14 July 2020
Temperature: 21.0°C (70°F)
Dewpoint: 20.0°C (68°F) [RH = 94%]
Pressure (altimeter): 29.59 inches Hg (1002.0 mb)
Winds: from the NNE (30 degrees) at 6 MPH (5 knots; 2.6 m/s)
Visibility: 1.86 miles (2.99 km)
Ceiling: 300 feet AGL
Clouds: few clouds at 100 feet AGL
broken clouds at 300 feet AGL
broken clouds at 1500 feet AGL
Weather: -SHRA BR  (light rain showers, mist)

METAR text: RJAH 140400Z 02004KT 4000 -SHRA BR FEW001 BKN003 BKN015 21/20 Q1002
Conditions at: RJAH (HYAKURI (JASDF) , JP) observed 0400 UTC 14 July 2020
Temperature: 21.0°C (70°F)
Dewpoint: 20.0°C (68°F) [RH = 94%]
Pressure (altimeter): 29.59 inches Hg (1002.0 mb)
Winds: from the NNE (20 degrees) at 5 MPH (4 knots; 2.1 m/s)
Visibility: 2.49 miles (4.01 km)
Ceiling: 300 feet AGL
Clouds: few clouds at 100 feet AGL
broken clouds at 300 feet AGL
broken clouds at 1500 feet AGL
Weather: -SHRA BR  (light rain showers, mist)

METAR text: RJAH 140300Z 06005KT 4000 -SHRA BR FEW001 BKN003 BKN015 21/20 Q1001
Conditions at: RJAH (HYAKURI (JASDF) , JP) observed 0300 UTC 14 July 2020
Temperature: 21.0°C (70°F)
Dewpoint: 20.0°C (68°F) [RH = 94%]
Pressure (altimeter): 29.56 inches Hg (1001.0 mb)
Winds: from the ENE (60 degrees) at 6 MPH (5 knots; 2.6 m/s)
Visibility: 2.49 miles (4.01 km)
Ceiling: 300 feet AGL
Clouds: few clouds at 100 feet AGL
broken clouds at 300 feet AGL
broken clouds at 1500 feet AGL
Weather: -SHRA BR  (light rain showers, mist)

METAR text: RJAH 140200Z 04004KT 3000 -SHRA BR FEW001 BKN002 OVC015 20/19 Q1002
Conditions at: RJAH (HYAKURI (JASDF) , JP) observed 0200 UTC 14 July 2020
Temperature: 20.0°C (68°F)
Dewpoint: 19.0°C (66°F) [RH = 94%]
Pressure (altimeter): 29.59 inches Hg (1002.0 mb)
Winds: from the NE (40 degrees) at 5 MPH (4 knots; 2.1 m/s)
Visibility: 1.86 miles (2.99 km)
Ceiling: 200 feet AGL
Clouds: few clouds at 100 feet AGL
broken clouds at 200 feet AGL
overcast cloud deck at 1500 feet AGL
Weather: -SHRA BR  (light rain showers, mist)

METAR text: RJAH 140135Z 04004KT 3000 -SHRA BR FEW001 BKN002 OVC015 20/19 Q1003 RMK 2ST001 7ST002 8CU015 A2962 VIS N-NE 2500M
Conditions at: RJAH (HYAKURI (JASDF) , JP) observed 0135 UTC 14 July 2020
Temperature: 20.0°C (68°F)
Dewpoint: 19.0°C (66°F) [RH = 94%]
Pressure (altimeter): 29.62 inches Hg (1003.0 mb)
Winds: from the NE (40 degrees) at 5 MPH (4 knots; 2.1 m/s)
Visibility: 1.86 miles (2.99 km)
Ceiling: 200 feet AGL
Clouds: few clouds at 100 feet AGL
broken clouds at 200 feet AGL
overcast cloud deck at 1500 feet AGL
Weather: -SHRA BR  (light rain showers, mist)

METAR text: RJAH 140100Z 06005KT 040V120 4000 -SHRA BR FEW001 BKN002 OVC015 20/18 Q1003
Conditions at: RJAH (HYAKURI (JASDF) , JP) observed 0100 UTC 14 July 2020
Temperature: 20.0°C (68°F)
Dewpoint: 18.0°C (64°F) [RH = 88%]
Pressure (altimeter): 29.62 inches Hg (1003.0 mb)
Winds: from the ENE (60 degrees) at 6 MPH (5 knots; 2.6 m/s)
Visibility: 2.49 miles (4.01 km)
Ceiling: 200 feet AGL
Clouds: few clouds at 100 feet AGL
broken clouds at 200 feet AGL
overcast cloud deck at 1500 feet AGL
Weather: -SHRA BR  (light rain showers, mist)

METAR text: RJAH 140019Z 06007KT 3000 -SHRA BR FEW001 BKN002 OVC015 19/18 Q1004 RMK 2ST001 7ST002 8CU015 A2965 VIS S 2500M
Conditions at: RJAH (HYAKURI (JASDF) , JP) observed 0019 UTC 14 July 2020
Temperature: 19.0°C (66°F)
Dewpoint: 18.0°C (64°F) [RH = 94%]
Pressure (altimeter): 29.65 inches Hg (1004.0 mb)
Winds: from the ENE (60 degrees) at 8 MPH (7 knots; 3.6 m/s)
Visibility: 1.86 miles (2.99 km)
Ceiling: 200 feet AGL
Clouds: few clouds at 100 feet AGL
broken clouds at 200 feet AGL
overcast cloud deck at 1500 feet AGL
Weather: -SHRA BR  (light rain showers, mist)

Forecast for: RJAH (HYAKURI (JASDF) , JP)
Text: TAF RJAH 151105Z 1512/1618 05012KT 8000 -RA FEW008 BKN012
Forecast period: 1200 UTC 15 July 2020 to 1800 UTC 16 July 2020
Forecast type: FROM: standard forecast or significant change
Winds: from the NE (50 degrees) at 14 MPH (12 knots; 6.2 m/s)
Visibility: 5 miles (8 km)
Ceiling: 1200 feet AGL
Clouds: few clouds at 800 feet AGL
broken clouds at 1200 feet AGL
Weather: -RA  (light rain)
Text: TEMPO 1512/1518 4000 -RA BR FEW005 BKN008
Forecast period: 1200 to 1800 UTC 15 July 2020
Forecast type: TEMPORARY: The following changes expected for less than half the time period
Visibility: 2.49 miles (4.01 km)
Ceiling: 800 feet AGL
Clouds: few clouds at 500 feet AGL
broken clouds at 800 feet AGL
Weather: -RA BR  (light rain, mist)
Text: TEMPO 1518/1600 4000 BR FEW002 BKN005
Forecast period: 1800 UTC 15 July 2020 to 0000 UTC 16 July 2020
Forecast type: TEMPORARY: The following changes expected for less than half the time period
Visibility: 2.49 miles (4.01 km)
Ceiling: 500 feet AGL
Clouds: few clouds at 200 feet AGL
broken clouds at 500 feet AGL
Weather: BR  (mist)
Text: TEMPO 1612/1618 FEW005 BKN008
Forecast period: 1200 to 1800 UTC 16 July 2020
Forecast type: TEMPORARY: The following changes expected for less than half the time period
Visibility: missing
Ceiling: 800 feet AGL
Clouds: few clouds at 500 feet AGL
broken clouds at 800 feet AGL
Weather: no significant weather forecast for this period